Time;durP1;ratioP1;P1;durP2;ratioP2;P2;SDS_P1;SDS_P2;PMS_P1;PMS_P2;Temp;Humidity;BMP_temperature;BMP_pressure;BME280_temperature;BME280_humidity;BME280_pressure;Samples;Min_cycle;Max_cycle;Signal;HPM_P1;HPM_P2
2022/01/11 00:00:01;;;;;;;95.72;29.23;;;;;;;-2.54;81.76;100793.22;8440930;27;20134;-69
2022/01/11 00:04:02;;;;;;;93.65;31.83;;;;;;;-2.65;82.26;100791.03;8496211;27;20043;-69
2022/01/11 00:08:03;;;;;;;104.03;32.22;;;;;;;-2.75;82.48;100801.06;8464724;27;20043;-70
2022/01/11 00:12:14;;;;;;;114.38;34.58;;;;;;;-2.87;82.80;100802.50;8487170;27;20075;-69
2022/01/11 00:16:14;;;;;;;118.40;36.00;;;;;;;-2.96;83.02;100809.66;8451636;27;20062;-68
2022/01/11 00:20:17;;;;;;;118.97;34.83;;;;;;;-3.05;82.96;100816.84;8461509;27;20054;-69
2022/01/11 00:24:28;;;;;;;125.10;36.83;;;;;;;-3.13;83.59;100824.88;8493698;27;20047;-68
2022/01/11 00:28:34;;;;;;;119.68;37.55;;;;;;;-3.21;83.67;100819.63;8488413;27;20125;-69
2022/01/11 00:32:42;;;;;;;127.50;38.15;;;;;;;-3.26;83.76;100824.63;8484304;27;20061;-69
2022/01/11 00:36:43;;;;;;;123.47;38.17;;;;;;;-3.31;84.02;100824.34;8467102;27;20047;-70
2022/01/11 00:40:51;;;;;;;112.35;37.65;;;;;;;-3.41;83.96;100831.69;8480147;27;20047;-69
2022/01/11 00:44:53;;;;;;;128.90;40.35;;;;;;;-3.50;84.10;100838.03;8492785;27;20078;-69
2022/01/11 00:48:53;;;;;;;133.35;45.95;;;;;;;-3.57;84.47;100842.34;8482491;27;20047;-69
2022/01/11 00:52:54;;;;;;;151.32;51.08;;;;;;;-3.64;84.49;100841.41;8469166;27;20050;-69
2022/01/11 00:56:55;;;;;;;141.57;46.78;;;;;;;-3.65;84.67;100845.06;8460727;27;20481;-70
2022/01/11 01:00:56;;;;;;;143.77;48.13;;;;;;;-3.70;84.83;100847.41;8485932;27;20043;-69
2022/01/11 01:04:56;;;;;;;160.52;49.97;;;;;;;-3.81;85.01;100847.78;8482322;27;20051;-69
2022/01/11 01:08:58;;;;;;;195.52;65.35;;;;;;;-3.86;85.14;100854.38;8481458;27;20058;-69
2022/01/11 01:12:59;;;;;;;182.88;55.45;;;;;;;-3.95;85.10;100850.16;8484567;27;20251;-70
2022/01/11 01:16:59;;;;;;;122.53;40.60;;;;;;;-3.97;85.29;100857.44;8474799;27;20531;-70
2022/01/11 01:21:00;;;;;;;132.13;42.28;;;;;;;-3.98;85.23;100861.06;8463527;27;20186;-70
2022/01/11 01:25:01;;;;;;;147.65;44.67;;;;;;;-4.04;85.38;100867.03;8450334;28;20495;-70
2022/01/11 01:29:02;;;;;;;115.10;37.85;;;;;;;-4.08;85.30;100863.09;8483665;27;20048;-70
2022/01/11 01:33:04;;;;;;;119.07;36.63;;;;;;;-4.13;85.44;100862.78;8479030;27;20050;-69
2022/01/11 01:37:07;;;;;;;109.03;38.13;;;;;;;-4.19;85.60;100868.72;8473329;27;20043;-68
2022/01/11 01:41:16;;;;;;;120.65;39.15;;;;;;;-4.26;85.90;100867.75;8471175;27;20051;-68
2022/01/11 01:45:16;;;;;;;110.43;37.03;;;;;;;-4.31;85.75;100876.19;8477511;27;20054;-69
2022/01/11 01:49:19;;;;;;;113.55;37.80;;;;;;;-4.30;85.86;100871.72;8460493;27;20129;-69
2022/01/11 01:53:20;;;;;;;139.35;40.78;;;;;;;-4.35;85.91;100864.31;8464063;27;20495;-69
2022/01/11 01:57:21;;;;;;;120.57;38.97;;;;;;;-4.37;85.76;100861.03;8462611;28;20481;-70
2022/01/11 02:01:22;;;;;;;129.32;37.38;;;;;;;-4.44;85.87;100869.81;8485639;27;20085;-70
2022/01/11 02:05:22;;;;;;;119.22;36.60;;;;;;;-4.51;85.67;100869.66;8487366;27;20126;-69
2022/01/11 02:09:23;;;;;;;128.30;37.08;;;;;;;-4.55;85.59;100872.78;8473199;27;20130;-69
2022/01/11 02:13:24;;;;;;;110.88;37.50;;;;;;;-4.61;85.60;100868.19;8461377;28;20060;-69
2022/01/11 02:17:27;;;;;;;116.85;34.65;;;;;;;-4.68;85.72;100878.56;8483913;27;20054;-69
2022/01/11 02:21:27;;;;;;;117.22;33.40;;;;;;;-4.75;85.58;100883.66;8429498;28;20047;-69
2022/01/11 02:25:28;;;;;;;106.43;33.65;;;;;;;-4.82;85.37;100885.34;8489006;28;20525;-69
2022/01/11 02:29:29;;;;;;;102.45;34.58;;;;;;;-4.87;85.34;100879.75;8484794;28;20075;-70
2022/01/11 02:33:37;;;;;;;114.18;34.53;;;;;;;-4.93;84.87;100885.69;8491018;28;20126;-69
2022/01/11 02:37:41;;;;;;;106.57;32.47;;;;;;;-5.00;85.12;100889.94;8491145;28;20050;-69
2022/01/11 02:41:54;;;;;;;119.00;34.60;;;;;;;-5.02;84.80;100891.91;8491972;28;20308;-69
2022/01/11 02:45:56;;;;;;;112.70;35.78;;;;;;;-5.02;84.87;100896.38;8491827;28;20518;-69
2022/01/11 02:49:56;;;;;;;117.80;36.53;;;;;;;-5.02;84.89;100886.63;8492422;28;20047;-69
2022/01/11 02:53:59;;;;;;;107.93;35.33;;;;;;;-5.08;84.72;100892.59;8438803;28;20058;-69
2022/01/11 02:58:00;;;;;;;117.68;33.70;;;;;;;-5.15;84.35;100891.59;8473385;28;20441;-69
2022/01/11 03:02:01;;;;;;;122.75;37.85;;;;;;;-5.21;84.08;100897.50;8468105;28;20066;-70
2022/01/11 03:06:04;;;;;;;109.50;34.22;;;;;;;-5.25;84.31;100890.94;8486131;27;20040;-69
2022/01/11 03:10:17;;;;;;;121.55;36.58;;;;;;;-5.32;84.16;100889.91;8418932;27;20039;-69
2022/01/11 03:14:17;;;;;;;115.28;35.58;;;;;;;-5.41;83.96;100907.53;8490114;27;20051;-68
2022/01/11 03:18:19;;;;;;;118.85;35.72;;;;;;;-5.45;84.01;100908.84;8493116;27;20174;-69
2022/01/11 03:22:20;;;;;;;120.38;36.80;;;;;;;-5.45;84.01;100905.38;8438480;27;20043;-70
2022/01/11 03:26:21;;;;;;;129.70;38.22;;;;;;;-5.46;84.18;100916.88;8490211;27;20050;-69
2022/01/11 03:30:22;;;;;;;130.73;36.53;;;;;;;-5.49;84.24;100914.56;8492930;27;20074;-70
2022/01/11 03:34:23;;;;;;;121.85;36.78;;;;;;;-5.53;84.43;100914.91;8463159;28;20051;-71
2022/01/11 03:38:24;;;;;;;127.22;36.75;;;;;;;-5.55;84.29;100916.03;8471940;27;20085;-68
2022/01/11 03:42:24;;;;;;;118.38;35.72;;;;;;;-5.58;84.10;100926.88;8475914;27;20047;-69
2022/01/11 03:46:25;;;;;;;128.80;36.58;;;;;;;-5.63;84.17;100919.47;8471639;27;20071;-68
2022/01/11 03:50:26;;;;;;;117.30;35.95;;;;;;;-5.69;84.31;100925.38;8481435;27;20043;-70
2022/01/11 03:54:40;;;;;;;110.30;33.15;;;;;;;-5.79;83.87;100924.69;8471241;27;20059;-69
2022/01/11 03:58:41;;;;;;;112.07;34.03;;;;;;;-5.84;83.78;100934.84;8477733;27;20043;-68
2022/01/11 04:02:42;;;;;;;116.63;35.70;;;;;;;-5.87;84.09;100932.59;8487416;27;20517;-69
2022/01/11 04:06:42;;;;;;;120.32;35.00;;;;;;;-5.91;83.87;100947.00;8416526;27;20035;-69
2022/01/11 04:10:43;;;;;;;106.30;32.42;;;;;;;-5.99;83.76;100949.63;8466939;27;20124;-69
2022/01/11 04:14:44;;;;;;;115.22;36.35;;;;;;;-6.07;83.74;100946.94;8497933;27;20142;-69
2022/01/11 04:18:45;;;;;;;121.78;36.00;;;;;;;-6.13;83.34;100939.66;8483058;27;20052;-69
2022/01/11 04:22:47;;;;;;;120.07;36.17;;;;;;;-6.19;83.41;100937.69;8486031;27;20092;-69
2022/01/11 04:26:47;;;;;;;123.93;35.42;;;;;;;-6.21;83.35;100944.91;8487285;27;20447;-69
2022/01/11 04:30:50;;;;;;;123.85;36.88;;;;;;;-6.21;83.33;100944.91;8473905;27;20047;-69
2022/01/11 04:34:50;;;;;;;130.82;37.65;;;;;;;-6.24;83.06;100950.47;8494164;27;20100;-69
2022/01/11 04:38:51;;;;;;;127.70;36.50;;;;;;;-6.28;82.70;100938.59;8472579;27;20039;-69
2022/01/11 04:42:52;;;;;;;120.30;36.05;;;;;;;-6.32;82.65;100947.78;8478193;27;20100;-69
2022/01/11 04:46:53;;;;;;;121.13;36.17;;;;;;;-6.40;82.66;100954.63;8463829;28;20067;-69
2022/01/11 04:50:54;;;;;;;120.35;35.38;;;;;;;-6.45;82.64;100954.25;8463669;28;20069;-68
2022/01/11 04:54:55;;;;;;;125.03;36.60;;;;;;;-6.49;82.80;100965.25;8496159;27;20051;-70
2022/01/11 04:58:56;;;;;;;129.27;38.30;;;;;;;-6.50;82.73;100969.66;8497191;27;20065;-70
2022/01/11 05:02:59;;;;;;;115.38;35.28;;;;;;;-6.52;82.36;100974.28;8473604;27;20487;-69
2022/01/11 05:06:59;;;;;;;119.97;35.75;;;;;;;-6.54;82.22;100975.38;8473882;27;20763;-69
2022/01/11 05:11:00;;;;;;;126.97;35.78;;;;;;;-6.59;82.49;100978.47;8476280;27;20056;-70
2022/01/11 05:15:01;;;;;;;126.50;35.65;;;;;;;-6.65;82.12;100973.81;8481199;27;20059;-68
2022/01/11 05:19:02;;;;;;;128.75;37.17;;;;;;;-6.66;82.29;100977.44;8472457;27;20035;-68
2022/01/11 05:23:03;;;;;;;130.25;37.13;;;;;;;-6.69;81.88;100972.50;8453542;27;20044;-70
2022/01/11 05:27:05;;;;;;;115.72;35.50;;;;;;;-6.73;82.14;100981.66;8409929;28;20499;-68
2022/01/11 05:31:05;;;;;;;120.93;35.65;;;;;;;-6.80;81.81;100996.38;8481001;27;20138;-69
2022/01/11 05:35:08;;;;;;;119.28;35.72;;;;;;;-6.86;81.79;100991.72;8463175;27;20040;-69
2022/01/11 05:39:09;;;;;;;115.13;33.67;;;;;;;-6.87;81.54;100996.13;8462069;28;20067;-68
2022/01/11 05:43:12;;;;;;;119.05;35.20;;;;;;;-6.88;81.78;101006.81;8462074;28;20079;-68
2022/01/11 05:47:12;;;;;;;119.63;34.83;;;;;;;-6.87;81.62;101005.81;8461931;28;20075;-70
2022/01/11 05:51:15;;;;;;;132.82;37.40;;;;;;;-6.84;81.75;101005.53;8462844;27;20074;-69
2022/01/11 05:55:16;;;;;;;129.95;36.40;;;;;;;-6.82;81.43;101003.59;8488472;27;20062;-70
2022/01/11 05:59:17;;;;;;;136.25;38.22;;;;;;;-6.85;81.55;101015.22;8496166;27;20054;-69
2022/01/11 06:03:18;;;;;;;140.27;38.30;;;;;;;-6.84;81.86;101022.13;8495437;27;20071;-69
2022/01/11 06:07:19;;;;;;;138.55;38.78;;;;;;;-6.79;81.62;101037.44;8495510;27;20047;-70
2022/01/11 06:11:19;;;;;;;143.80;39.22;;;;;;;-6.80;81.67;101025.25;8463323;28;20491;-69
2022/01/11 06:15:20;;;;;;;125.28;37.08;;;;;;;-6.80;81.66;101033.16;8474260;27;20051;-69
2022/01/11 06:19:21;;;;;;;131.40;38.75;;;;;;;-6.80;81.74;101043.66;8461416;28;20460;-69
2022/01/11 06:23:22;;;;;;;130.43;37.17;;;;;;;-6.80;81.96;101046.28;8443477;28;20040;-68
2022/01/11 06:27:23;;;;;;;122.05;36.53;;;;;;;-6.80;81.92;101043.66;8461224;28;20059;-69
2022/01/11 06:31:24;;;;;;;118.38;37.38;;;;;;;-6.93;81.89;101053.72;8461300;28;20047;-70
2022/01/11 06:35:25;;;;;;;127.13;35.15;;;;;;;-7.00;81.78;101052.66;8461056;28;20131;-69
2022/01/11 06:39:27;;;;;;;128.80;36.67;;;;;;;-7.05;82.07;101060.16;8460851;28;20044;-69
2022/01/11 06:43:28;;;;;;;114.05;36.03;;;;;;;-7.06;82.03;101058.47;8488667;27;20100;-69
2022/01/11 06:47:28;;;;;;;138.43;41.05;;;;;;;-7.05;81.74;101065.41;8501772;27;20454;-70
2022/01/11 06:51:30;;;;;;;140.25;39.88;;;;;;;-7.06;81.75;101063.75;8481762;27;20414;-69
2022/01/11 06:55:30;;;;;;;154.20;44.03;;;;;;;-7.07;81.82;101068.16;8414707;28;20043;-69
2022/01/11 06:59:31;;;;;;;161.93;46.90;;;;;;;-7.06;81.56;101079.50;8467489;28;20089;-68
2022/01/11 07:03:32;;;;;;;182.77;47.60;;;;;;;-7.04;81.52;101082.81;8467127;28;20058;-69
2022/01/11 07:07:33;;;;;;;183.98;48.55;;;;;;;-7.08;81.55;101086.69;8467030;28;20051;-70
2022/01/11 07:11:34;;;;;;;190.15;50.72;;;;;;;-7.11;81.70;101089.59;8466879;27;20088;-68
2022/01/11 07:15:34;;;;;;;217.02;54.45;;;;;;;-7.13;81.53;101087.13;8466906;28;20071;-69
2022/01/11 07:19:37;;;;;;;224.23;61.53;;;;;;;-7.08;81.20;101086.69;8466883;28;20466;-69
2022/01/11 07:23:38;;;;;;;224.63;60.85;;;;;;;-7.04;81.36;101088.06;8466879;28;20109;-69
2022/01/11 07:27:39;;;;;;;214.90;58.63;;;;;;;-6.98;81.81;101093.53;8466548;28;20047;-68
2022/01/11 07:31:41;;;;;;;215.50;58.75;;;;;;;-6.89;81.75;101091.84;8413493;28;20059;-69
2022/01/11 07:35:42;;;;;;;259.85;69.07;;;;;;;-6.82;81.59;101082.41;8466329;28;20077;-69
2022/01/11 07:39:43;;;;;;;253.88;69.30;;;;;;;-6.72;81.17;101083.16;8448698;27;20185;-70
2022/01/11 07:43:44;;;;;;;229.52;67.47;;;;;;;-6.64;81.22;101096.38;8466206;28;20073;-68
2022/01/11 07:47:44;;;;;;;244.93;65.57;;;;;;;-6.50;81.38;101098.47;8466079;28;20039;-68
2022/01/11 07:51:46;;;;;;;260.40;71.90;;;;;;;-6.36;81.32;101094.50;8466206;28;20414;-68
2022/01/11 07:55:47;;;;;;;239.10;69.80;;;;;;;-6.23;81.03;101109.88;8464889;28;20051;-70
2022/01/11 07:59:48;;;;;;;224.93;64.45;;;;;;;-6.10;81.24;101105.06;8413086;28;20047;-69
2022/01/11 08:03:49;;;;;;;215.25;62.35;;;;;;;-5.99;81.24;101096.94;8446130;28;20100;-69
2022/01/11 08:07:50;;;;;;;211.05;58.72;;;;;;;-5.87;81.55;101095.72;8469460;27;20407;-69
2022/01/11 08:11:51;;;;;;;223.73;62.17;;;;;;;-5.72;81.24;101099.41;8466025;27;20056;-69
2022/01/11 08:15:51;;;;;;;204.48;61.63;;;;;;;-5.60;81.31;101098.13;8464522;28;20055;-69
2022/01/11 08:19:52;;;;;;;228.48;66.88;;;;;;;-5.45;81.30;101097.56;8464116;27;20043;-69
2022/01/11 08:23:53;;;;;;;217.52;64.10;;;;;;;-5.31;81.18;101091.72;8464758;28;20047;-69
2022/01/11 08:27:54;;;;;;;250.27;76.40;;;;;;;-5.17;80.93;101104.28;8464963;28;20050;-69
2022/01/11 08:31:55;;;;;;;241.00;72.10;;;;;;;-5.00;81.35;101108.63;8464544;28;20059;-70
2022/01/11 08:35:56;;;;;;;238.95;71.28;;;;;;;-4.83;81.06;101107.72;8464714;28;20483;-70
2022/01/11 08:39:57;;;;;;;233.85;72.10;;;;;;;-4.66;81.01;101113.03;8464659;27;20062;-69
2022/01/11 08:43:57;;;;;;;280.80;81.57;;;;;;;-4.52;81.34;101125.56;8464500;28;20471;-69
2022/01/11 08:47:59;;;;;;;298.40;93.40;;;;;;;-4.35;81.07;101127.25;8464437;28;20062;-69
2022/01/11 08:52:00;;;;;;;291.73;86.03;;;;;;;-4.22;80.92;101127.59;8446111;28;20047;-69
2022/01/11 08:56:01;;;;;;;224.95;67.53;;;;;;;-4.07;81.27;101131.22;8411325;28;20047;-68
2022/01/11 09:00:18;;;;;;;207.50;64.40;;;;;;;-3.93;80.89;101137.66;8464135;28;20040;-69
2022/01/11 09:04:21;;;;;;;198.13;60.47;;;;;;;-3.79;81.35;101144.09;8413918;28;20517;-69
2022/01/11 09:08:22;;;;;;;170.82;53.42;;;;;;;-3.57;82.89;101143.41;8464313;27;20116;-68
2022/01/11 09:12:23;;;;;;;165.70;51.38;;;;;;;-3.47;83.18;101149.34;8463963;28;20101;-68
2022/01/11 09:16:24;;;;;;;175.15;53.65;;;;;;;-3.41;83.07;101153.94;8463478;28;20126;-70
2022/01/11 09:20:25;;;;;;;151.10;49.83;;;;;;;-3.32;82.65;101152.94;8463326;28;20061;-69
2022/01/11 09:24:29;;;;;;;154.25;47.60;;;;;;;-3.30;82.69;101150.97;8462802;28;20059;-69
2022/01/11 09:28:30;;;;;;;139.82;45.17;;;;;;;-3.28;82.67;101148.97;8463278;28;20056;-68
2022/01/11 09:32:34;;;;;;;146.52;45.20;;;;;;;-3.26;82.87;101149.63;8462899;28;20043;-68
2022/01/11 09:36:35;;;;;;;141.38;43.15;;;;;;;-3.17;82.85;101135.38;8496346;27;20051;-69
2022/01/11 09:40:35;;;;;;;134.85;46.08;;;;;;;-3.12;82.47;101133.06;8496569;27;20055;-67
2022/01/11 09:44:40;;;;;;;167.65;59.90;;;;;;;-3.05;82.54;101144.59;8495481;27;20478;-71
2022/01/11 09:48:43;;;;;;;146.60;46.90;;;;;;;-2.97;82.55;101145.56;8497054;27;20498;-69
2022/01/11 09:52:44;;;;;;;136.88;45.85;;;;;;;-2.87;82.47;101146.19;8459658;27;20051;-70
2022/01/11 09:56:45;;;;;;;135.32;44.42;;;;;;;-2.76;82.34;101159.03;8486433;27;20043;-68
2022/01/11 10:00:47;;;;;;;139.95;44.78;;;;;;;-2.69;82.01;101149.41;8461614;28;20058;-68
2022/01/11 10:04:55;;;;;;;134.80;44.53;;;;;;;-2.64;82.40;101162.94;8461739;28;20047;-69
2022/01/11 10:09:18;;;;;;;140.15;43.55;;;;;;;-2.67;82.03;101160.63;8475599;27;20043;-69
2022/01/11 10:13:37;;;;;;;139.23;44.35;;;;;;;-2.61;82.11;101167.88;8495764;27;20073;-68
2022/01/11 10:17:48;;;;;;;165.60;58.90;;;;;;;-2.58;82.22;101167.53;8494641;27;20043;-69
2022/01/11 10:21:51;;;;;;;136.13;44.15;;;;;;;-2.51;81.70;101167.66;8495319;28;20043;-69
2022/01/11 10:25:52;;;;;;;145.45;47.42;;;;;;;-2.39;81.90;101172.41;8494994;28;20051;-68
2022/01/11 10:29:54;;;;;;;234.27;62.83;;;;;;;-2.31;81.61;101164.41;8476736;28;20474;-69
2022/01/11 10:34:04;;;;;;;146.45;46.22;;;;;;;-2.19;81.34;101168.31;8495121;28;20067;-68
2022/01/11 10:38:06;;;;;;;131.15;43.60;;;;;;;-2.30;80.85;101166.06;8477040;28;20035;-68
2022/01/11 10:42:23;;;;;;;140.98;47.38;;;;;;;-2.30;81.12;101174.00;8495353;28;20066;-68
2022/01/11 10:46:42;;;;;;;141.95;44.38;;;;;;;-2.17;81.42;101176.06;8494908;28;20074;-69
2022/01/11 10:50:49;;;;;;;135.68;42.92;;;;;;;-2.04;80.74;101180.78;8495484;28;20051;-70
2022/01/11 10:54:51;;;;;;;124.85;41.15;;;;;;;-2.01;80.19;101175.16;8495139;28;20486;-68
2022/01/11 10:59:10;;;;;;;141.30;42.47;;;;;;;-2.03;80.22;101182.44;8475394;28;20063;-69
2022/01/11 11:03:22;;;;;;;137.85;43.70;;;;;;;-1.99;80.52;101183.72;8495121;28;20043;-68
2022/01/11 11:07:23;;;;;;;123.43;41.13;;;;;;;-1.92;80.17;101184.66;8491843;28;20067;-70
2022/01/11 11:11:24;;;;;;;119.25;39.08;;;;;;;-1.97;80.30;101187.03;8444976;28;20063;-69
2022/01/11 11:15:35;;;;;;;115.00;40.38;;;;;;;-1.86;79.77;101178.66;8494576;28;20078;-68
2022/01/11 11:20:15;;;;;;;137.48;43.08;;;;;;;-1.74;79.99;101177.22;8476045;28;20047;-69
2022/01/11 11:24:16;;;;;;;;;;;;;;;-1.58;79.11;101177.09;8323813;28;20429;-69
2022/01/11 11:28:17;;;;;;;100.95;33.42;;;;;;;-1.52;77.96;101171.06;8325851;28;19928;-69
2022/01/11 11:32:20;;;;;;;89.10;32.03;;;;;;;-1.51;77.93;101178.03;8328872;28;20065;-68
2022/01/11 11:36:21;;;;;;;82.07;27.80;;;;;;;-1.57;77.32;101183.22;8295800;28;20162;-70
2022/01/11 11:40:24;;;;;;;83.57;29.77;;;;;;;-1.50;77.98;101174.38;8328507;28;20045;-70
2022/01/11 11:44:27;;;;;;;87.13;31.75;;;;;;;-1.46;77.53;101165.06;8296083;28;20055;-69
2022/01/11 11:48:28;;;;;;;84.07;32.80;;;;;;;-1.42;77.46;101155.72;8328576;28;20127;-70
2022/01/11 11:52:38;;;;;;;90.85;31.52;;;;;;;-1.31;77.08;101155.28;8339377;27;20085;-70
2022/01/11 11:56:43;;;;;;;97.78;33.55;;;;;;;-1.33;77.12;101149.38;8481413;27;20039;-69
2022/01/11 12:00:45;;;;;;;100.22;33.75;;;;;;;-1.35;77.38;101146.06;8499246;27;20134;-69
2022/01/11 12:04:53;;;;;;;105.32;35.53;;;;;;;-1.30;76.93;101143.69;8499494;27;20047;-69
2022/01/11 12:09:06;;;;;;;101.13;34.83;;;;;;;-1.27;76.98;101141.69;8485595;27;20044;-68
2022/01/11 12:13:07;;;;;;;106.03;36.90;;;;;;;-1.40;76.84;101148.44;8446859;28;20063;-69
2022/01/11 12:17:16;;;;;;;106.22;34.47;;;;;;;-1.27;76.88;101148.63;8464850;28;20047;-68
2022/01/11 12:21:17;;;;;;;115.88;37.10;;;;;;;-1.19;76.96;101144.25;8465116;28;20071;-69
2022/01/11 12:25:30;;;;;;;126.18;38.55;;;;;;;-1.18;76.84;101145.91;8446772;28;20051;-69
2022/01/11 12:29:31;;;;;;;118.63;38.38;;;;;;;-1.13;77.20;101138.22;8464690;28;20051;-69
2022/01/11 12:33:46;;;;;;;108.57;36.92;;;;;;;-1.11;77.18;101136.22;8464832;28;20410;-69
2022/01/11 12:37:47;;;;;;;126.00;40.78;;;;;;;-1.10;77.72;101143.13;8411520;28;20061;-69
2022/01/11 12:41:50;;;;;;;123.10;43.33;;;;;;;-1.06;77.54;101139.13;8463772;28;20558;-69
2022/01/11 12:46:08;;;;;;;113.90;35.95;;;;;;;-0.89;77.30;101135.25;8464329;28;20138;-68
2022/01/11 12:50:12;;;;;;;94.45;33.75;;;;;;;-0.50;77.61;101130.44;8464060;28;20490;-69
2022/01/11 12:54:21;;;;;;;99.93;35.63;;;;;;;0.05;77.59;101139.59;8463859;28;20055;-69
2022/01/11 12:58:22;;;;;;;103.63;36.42;;;;;;;0.58;78.13;101140.00;8463624;28;20100;-69
2022/01/11 13:02:30;;;;;;;96.65;35.97;;;;;;;1.11;76.01;101141.94;8463596;28;20462;-70
2022/01/11 13:06:32;;;;;;;;;;;;;;;1.37;73.75;101145.75;8464205;28;20043;-69
2022/01/11 13:10:33;;;;;;;104.35;39.42;;;;;;;1.45;74.35;101137.59;8463123;28;19926;-68
2022/01/11 13:14:43;;;;;;;89.28;34.38;;;;;;;1.44;73.48;101127.94;8463169;28;20396;-69
2022/01/11 13:18:44;;;;;;;80.82;33.45;;;;;;;1.42;73.63;101132.66;8463108;28;20051;-70
2022/01/11 13:27:14;;;;;;;96.05;36.33;;;;;;;1.16;72.85;101138.72;8462835;28;20130;-69
2022/01/11 13:31:26;;;;;;;98.22;37.78;;;;;;;1.32;71.32;101133.06;8462924;28;20047;-70
2022/01/11 13:35:27;;;;;;;87.75;34.90;;;;;;;1.34;71.75;101135.50;8466036;27;20566;-69
2022/01/11 13:39:35;;;;;;;72.60;30.55;;;;;;;1.53;71.16;101142.75;8466319;27;20055;-70
2022/01/11 13:43:37;;;;;;;;;;;;;;;1.56;71.08;101129.03;8455005;27;20040;-69
2022/01/11 13:47:38;;;;;;;66.70;28.58;;;;;;;1.28;71.18;101137.94;8462272;28;20032;-69
2022/01/11 13:51:43;;;;;;;74.20;32.35;;;;;;;1.01;70.73;101144.13;8460595;28;20064;-70
2022/01/11 13:55:44;;;;;;;85.20;33.20;;;;;;;0.81;70.69;101145.88;8479103;27;20048;-70
2022/01/11 13:59:46;;;;;;;82.70;32.30;;;;;;;0.61;70.54;101139.59;8461722;28;20043;-69
2022/01/11 14:03:47;;;;;;;81.97;32.58;;;;;;;0.33;70.68;101143.09;8461822;27;20093;-70
2022/01/11 14:07:53;;;;;;;73.50;29.48;;;;;;;0.05;71.07;101139.59;8461548;28;20047;-69
2022/01/11 14:12:07;;;;;;;80.13;29.67;;;;;;;-0.12;71.11;101148.81;8414892;27;20133;-70
2022/01/11 14:16:14;;;;;;;81.55;30.25;;;;;;;-0.20;71.61;101140.94;8481889;27;20056;-69
2022/01/11 14:20:24;;;;;;;79.57;30.23;;;;;;;-0.16;71.68;101147.56;8461447;28;20052;-70
2022/01/11 14:24:51;;;;;;;83.88;31.08;;;;;;;-0.14;71.75;101146.34;8461428;28;20058;-70
2022/01/11 14:28:51;;;;;;;92.95;33.83;;;;;;;-0.34;72.01;101149.81;8461159;28;20055;-70
2022/01/11 14:32:54;;;;;;;85.82;31.10;;;;;;;-0.55;72.45;101154.06;8442986;28;20047;-69
2022/01/11 14:37:14;;;;;;;79.15;31.15;;;;;;;-0.71;72.91;101153.44;8460430;28;20132;-69
2022/01/11 14:41:18;;;;;;;81.85;30.88;;;;;;;-0.91;73.56;101154.03;8461003;28;20054;-68
2022/01/11 14:45:24;;;;;;;86.03;31.42;;;;;;;-1.10;73.60;101154.56;8479061;28;20058;-70
2022/01/11 14:49:29;;;;;;;87.32;30.98;;;;;;;-1.24;73.90;101162.53;8495287;28;20048;-69
2022/01/11 14:53:33;;;;;;;85.38;30.00;;;;;;;-1.38;74.31;101151.75;8492235;28;20062;-70
2022/01/11 14:57:34;;;;;;;84.32;30.80;;;;;;;-1.47;74.72;101158.09;8466345;28;20494;-69
2022/01/11 15:01:42;;;;;;;87.15;30.25;;;;;;;-1.64;74.72;101155.81;8448224;28;20055;-70
2022/01/11 15:05:43;;;;;;;96.00;31.90;;;;;;;-1.75;75.22;101154.41;8476876;27;20486;-69
2022/01/11 15:09:45;;;;;;;86.30;29.83;;;;;;;-1.88;75.55;101159.47;8466348;27;20350;-69
2022/01/11 15:13:49;;;;;;;87.50;31.10;;;;;;;-2.01;75.87;101159.25;8465867;27;20071;-70
2022/01/11 15:17:50;;;;;;;87.75;31.48;;;;;;;-2.13;76.20;101162.31;8465914;27;20044;-69
2022/01/11 15:21:51;;;;;;;88.05;32.70;;;;;;;-2.23;76.62;101174.13;8466446;28;20067;-69
2022/01/11 15:25:52;;;;;;;87.50;30.85;;;;;;;-2.31;76.94;101180.28;8413981;28;20112;-69
2022/01/11 15:29:53;;;;;;;89.95;31.83;;;;;;;-2.39;77.15;101177.69;8466877;28;20110;-69
2022/01/11 15:33:54;;;;;;;97.80;32.72;;;;;;;-2.46;77.62;101181.19;8435581;27;20071;-69
2022/01/11 15:37:57;;;;;;;94.90;31.27;;;;;;;-2.52;77.39;101188.00;8471407;27;20487;-69
2022/01/11 15:41:58;;;;;;;92.25;31.30;;;;;;;-2.62;77.68;101187.41;8479727;27;20047;-69
2022/01/11 15:46:00;;;;;;;89.55;31.83;;;;;;;-2.67;77.67;101189.72;8467460;27;20499;-69
2022/01/11 15:50:01;;;;;;;99.22;32.63;;;;;;;-2.76;77.96;101169.63;8479913;27;20055;-69
2022/01/11 15:54:11;;;;;;;107.97;34.80;;;;;;;-2.84;78.00;101172.28;8460592;28;20082;-70
2022/01/11 15:58:12;;;;;;;90.22;31.05;;;;;;;-2.91;78.21;101179.25;8470176;27;20051;-70
2022/01/11 16:02:13;;;;;;;122.70;36.33;;;;;;;-3.00;78.28;101174.00;8477292;27;20126;-70
2022/01/11 16:06:13;;;;;;;111.88;35.78;;;;;;;-3.06;78.41;101185.22;8429653;28;20043;-69
2022/01/11 16:10:14;;;;;;;108.13;37.13;;;;;;;-3.12;78.41;101188.56;8465386;28;20068;-69
2022/01/11 16:14:15;;;;;;;111.00;37.00;;;;;;;-3.19;78.71;101187.59;8464656;28;20056;-69
2022/01/11 16:18:17;;;;;;;107.50;36.67;;;;;;;-3.26;78.74;101183.97;8472383;27;20132;-69
2022/01/11 16:22:17;;;;;;;118.63;39.90;;;;;;;-3.35;79.20;101185.00;8477017;27;20120;-69
2022/01/11 16:26:18;;;;;;;119.72;39.67;;;;;;;-3.45;79.43;101189.63;8451709;27;20059;-68
2022/01/11 16:30:24;;;;;;;137.07;41.13;;;;;;;-3.54;79.24;101195.88;8467044;27;20052;-70
2022/01/11 16:34:25;;;;;;;114.68;39.33;;;;;;;-3.57;79.38;101201.50;8465678;27;20138;-69
2022/01/11 16:38:26;;;;;;;120.18;38.22;;;;;;;-3.65;79.54;101193.63;8464356;27;20097;-69
2022/01/11 16:42:40;;;;;;;110.22;37.10;;;;;;;-3.76;79.67;101191.28;8475630;27;20092;-70
2022/01/11 16:46:41;;;;;;;134.40;42.22;;;;;;;-3.86;79.85;101192.25;8477046;27;20130;-68
2022/01/11 16:50:43;;;;;;;124.05;41.80;;;;;;;-3.91;80.06;101184.00;8473849;27;20115;-70
2022/01/11 16:54:44;;;;;;;149.00;45.42;;;;;;;-3.98;80.00;101183.03;8482340;27;20042;-69
2022/01/11 16:58:45;;;;;;;148.07;48.05;;;;;;;-4.05;80.18;101192.59;8497433;27;20070;-70
2022/01/11 17:02:46;;;;;;;166.52;51.03;;;;;;;-4.11;80.33;101198.50;8491211;27;20047;-69
2022/01/11 17:06:47;;;;;;;170.43;53.90;;;;;;;-4.17;80.04;101193.88;8497069;27;20051;-70
2022/01/11 17:10:48;;;;;;;166.88;49.95;;;;;;;-4.21;80.22;101187.28;8468969;27;20052;-68
2022/01/11 17:14:49;;;;;;;156.88;49.78;;;;;;;-4.32;80.56;101184.94;8487218;27;20055;-69
2022/01/11 17:18:50;;;;;;;160.52;51.38;;;;;;;-4.38;80.60;101190.88;8463256;27;20040;-69
2022/01/11 17:22:51;;;;;;;173.13;54.20;;;;;;;-4.49;80.77;101188.53;8460538;27;20060;-69
2022/01/11 17:26:52;;;;;;;165.40;50.83;;;;;;;-4.52;80.74;101194.13;8494597;27;20174;-69
2022/01/11 17:30:53;;;;;;;176.50;55.53;;;;;;;-4.52;80.70;101199.41;8462864;27;20127;-69
2022/01/11 17:34:53;;;;;;;174.40;55.50;;;;;;;-4.55;80.71;101189.19;8426793;28;20051;-68
2022/01/11 17:38:54;;;;;;;176.43;55.80;;;;;;;-4.59;80.69;101201.03;8444123;28;20055;-68
2022/01/11 17:42:55;;;;;;;186.27;56.13;;;;;;;-4.65;80.84;101209.59;8470916;27;20047;-69
2022/01/11 17:46:57;;;;;;;218.30;66.50;;;;;;;-4.71;81.21;101206.59;8496292;27;20044;-69
2022/01/11 17:50:57;;;;;;;197.25;62.15;;;;;;;-4.77;81.10;101214.31;8451129;28;20074;-70
2022/01/11 17:55:00;;;;;;;197.88;61.70;;;;;;;-4.85;81.05;101220.34;8473621;27;20162;-70
2022/01/11 17:59:01;;;;;;;232.80;67.05;;;;;;;-4.89;81.06;101228.75;8466576;27;20051;-71
2022/01/11 18:03:02;;;;;;;219.90;67.00;;;;;;;-4.98;81.26;101235.78;8489475;27;20522;-69
2022/01/11 18:07:03;;;;;;;201.35;63.60;;;;;;;-5.04;81.24;101236.41;8492501;27;20489;-69
2022/01/11 18:11:04;;;;;;;207.15;62.42;;;;;;;-5.09;80.89;101238.69;8463886;27;20056;-70
2022/01/11 18:15:08;;;;;;;194.07;60.53;;;;;;;-5.15;80.85;101239.31;8443367;28;20488;-70
2022/01/11 18:19:09;;;;;;;180.25;57.10;;;;;;;-5.19;81.18;101237.97;8483885;27;20047;-69